createdAt,value
2019-06-15T00:01:39.773Z,21.60
2019-06-15T00:04:09.179Z,21.60
2019-06-15T00:06:38.608Z,21.60
2019-06-15T00:09:08.471Z,21.50
2019-06-15T00:11:37.856Z,21.50
2019-06-15T00:14:07.232Z,21.50
2019-06-15T00:16:36.644Z,21.40
2019-06-15T00:19:06.029Z,21.40
2019-06-15T00:21:35.444Z,21.40
2019-06-15T00:24:04.847Z,21.30
2019-06-15T00:26:34.341Z,21.30
2019-06-15T00:29:03.696Z,21.20
2019-06-15T00:31:33.074Z,21.20
2019-06-15T00:34:02.500Z,21.20
2019-06-15T00:36:31.984Z,21.20
2019-06-15T00:39:01.383Z,21.20
2019-06-15T00:41:30.763Z,21.10
2019-06-15T00:44:00.180Z,21.10
2019-06-15T00:46:29.581Z,21.20
2019-06-15T00:48:58.959Z,21.20
2019-06-15T00:51:28.351Z,21.20
2019-06-15T00:53:57.799Z,21.20
2019-06-15T00:56:27.165Z,21.30
2019-06-15T00:58:56.569Z,21.30
2019-06-15T01:01:25.965Z,21.20
2019-06-15T01:03:55.392Z,21.20
2019-06-15T01:06:24.768Z,21.20
2019-06-15T01:08:54.412Z,21.20
2019-06-15T01:11:23.835Z,21.20
2019-06-15T01:13:53.218Z,21.20
2019-06-15T01:16:22.676Z,21.20
2019-06-15T01:18:52.061Z,21.10
2019-06-15T01:21:21.476Z,21.10
2019-06-15T01:23:50.842Z,21.00
2019-06-15T01:26:20.287Z,20.90
2019-06-15T01:28:49.663Z,20.80
2019-06-15T01:31:19.035Z,20.70
2019-06-15T01:33:48.433Z,20.60
2019-06-15T01:36:17.815Z,20.60
2019-06-15T01:38:47.285Z,20.50
2019-06-15T01:41:16.667Z,20.40
2019-06-15T01:43:46.099Z,20.30
2019-06-15T01:46:15.536Z,20.30
2019-06-15T01:48:44.958Z,20.20
2019-06-15T01:51:14.414Z,20.20
2019-06-15T01:53:43.856Z,20.10
2019-06-15T01:56:13.224Z,20.00
2019-06-15T01:58:42.648Z,20.00
2019-06-15T02:01:12.059Z,19.90
2019-06-15T02:03:41.468Z,19.90
2019-06-15T02:06:10.885Z,19.90
2019-06-15T02:08:40.367Z,19.90
2019-06-15T02:11:09.772Z,19.90
2019-06-15T02:13:39.416Z,19.90
2019-06-15T02:16:08.881Z,19.90
2019-06-15T02:18:38.317Z,19.90
2019-06-15T02:21:07.726Z,19.90
2019-06-15T02:23:37.079Z,19.90
2019-06-15T02:26:06.511Z,19.80
2019-06-15T02:28:35.928Z,19.80
2019-06-15T02:31:05.459Z,19.80
2019-06-15T02:33:34.840Z,19.70
2019-06-15T02:36:04.383Z,19.70
2019-06-15T02:38:33.767Z,19.70
2019-06-15T02:41:03.176Z,19.60
2019-06-15T02:43:32.576Z,19.60
2019-06-15T02:46:02.179Z,19.70
2019-06-15T02:48:31.675Z,19.70
2019-06-15T02:51:01.394Z,19.70
2019-06-15T02:53:30.827Z,19.70
2019-06-15T02:56:00.254Z,19.70
2019-06-15T02:58:29.628Z,19.80
2019-06-15T03:01:04.623Z,19.80
2019-06-15T03:03:34.122Z,19.80
2019-06-15T03:06:03.880Z,19.80
2019-06-15T03:08:33.837Z,19.70
2019-06-15T03:11:03.468Z,19.70
2019-06-15T03:13:34.952Z,19.70
2019-06-15T03:16:04.705Z,19.70
2019-06-15T03:18:34.237Z,19.70
2019-06-15T03:21:03.745Z,19.70
2019-06-15T03:23:33.164Z,19.60
2019-06-15T03:26:05.782Z,19.60
2019-06-15T03:28:33.639Z,19.60
2019-06-15T03:31:03.063Z,19.60
2019-06-15T03:33:32.475Z,19.50
2019-06-15T03:36:01.931Z,19.50
2019-06-15T03:38:31.409Z,19.50
2019-06-15T03:41:00.837Z,19.40
2019-06-15T03:43:30.266Z,19.40
2019-06-15T03:45:59.929Z,19.40
2019-06-15T03:48:29.373Z,19.40
2019-06-15T03:50:58.778Z,19.30
2019-06-15T03:53:28.195Z,19.30
2019-06-15T03:55:57.584Z,19.30
2019-06-15T03:58:27.021Z,19.30
2019-06-15T04:01:07.512Z,19.30
2019-06-15T04:03:36.949Z,19.40
2019-06-15T04:06:06.385Z,19.40
2019-06-15T04:08:35.821Z,19.40
2019-06-15T04:11:05.348Z,19.40
2019-06-15T04:13:34.819Z,19.40
2019-06-15T04:16:04.397Z,19.40
2019-06-15T04:18:33.747Z,19.40
2019-06-15T04:21:03.188Z,19.40
2019-06-15T04:23:32.571Z,19.40
2019-06-15T04:26:02.007Z,19.50
2019-06-15T04:28:31.392Z,19.50
2019-06-15T04:31:00.783Z,19.70
2019-06-15T04:33:30.266Z,19.80
2019-06-15T04:35:59.596Z,20.00
2019-06-15T04:38:29.024Z,20.20
2019-06-15T04:41:01.446Z,20.40
2019-06-15T04:43:29.506Z,20.60
2019-06-15T04:45:58.954Z,20.80
2019-06-15T04:48:28.340Z,21.10
2019-06-15T04:50:57.792Z,21.30
2019-06-15T04:53:27.212Z,21.40
2019-06-15T04:55:56.618Z,21.50
2019-06-15T04:58:25.929Z,21.60
2019-06-15T05:00:55.328Z,21.60
2019-06-15T05:03:24.986Z,21.70
2019-06-15T05:05:54.404Z,21.80
2019-06-15T05:08:23.789Z,21.90
2019-06-15T05:10:59.375Z,22.10
2019-06-15T05:13:24.304Z,22.40
2019-06-15T05:15:53.816Z,22.70
2019-06-15T05:18:23.240Z,22.90
2019-06-15T05:20:52.620Z,23.00
2019-06-15T05:23:22.025Z,23.10
2019-06-15T05:25:51.423Z,23.20
2019-06-15T05:28:20.816Z,23.30
2019-06-15T05:30:50.286Z,23.30
2019-06-15T05:33:19.746Z,23.40
2019-06-15T05:35:49.151Z,23.60
2019-06-15T05:38:18.570Z,23.70
2019-06-15T05:40:47.949Z,23.70
2019-06-15T05:43:17.357Z,23.70
2019-06-15T05:45:46.752Z,23.70
2019-06-15T05:48:16.184Z,23.70
2019-06-15T05:50:45.556Z,23.70
2019-06-15T05:53:14.973Z,23.70
2019-06-15T05:55:44.530Z,23.70
2019-06-15T05:58:13.896Z,23.70
2019-06-15T06:00:43.338Z,23.70
2019-06-15T06:03:12.814Z,23.70
2019-06-15T06:05:42.212Z,23.60
2019-06-15T06:08:11.596Z,23.60
2019-06-15T06:10:41.029Z,23.50
2019-06-15T06:13:10.435Z,23.50
2019-06-15T06:15:39.878Z,23.50
2019-06-15T06:18:09.496Z,23.50
2019-06-15T06:20:38.899Z,23.50
2019-06-15T06:23:08.308Z,23.50
2019-06-15T06:25:37.704Z,23.50
2019-06-15T06:28:07.141Z,23.50
2019-06-15T06:30:36.547Z,23.40
2019-06-15T06:33:05.981Z,23.40
2019-06-15T06:35:35.486Z,23.40
2019-06-15T06:38:04.912Z,23.50
2019-06-15T06:40:34.320Z,23.60
2019-06-15T06:43:03.712Z,23.70
2019-06-15T06:45:33.231Z,23.70
2019-06-15T06:48:02.624Z,23.80
2019-06-15T06:50:32.068Z,23.90
2019-06-15T06:53:01.445Z,23.90
2019-06-15T06:55:30.864Z,24.00
2019-06-15T06:58:00.258Z,24.10
2019-06-15T07:00:30.247Z,24.10
2019-06-15T07:02:59.736Z,24.20
2019-06-15T07:05:29.192Z,24.20
2019-06-15T07:07:58.563Z,24.20
2019-06-15T07:10:28.012Z,24.20
2019-06-15T07:12:57.448Z,24.20
2019-06-15T07:15:26.870Z,24.20
2019-06-15T07:17:56.303Z,24.20
2019-06-15T07:20:25.701Z,24.20
2019-06-15T07:22:55.123Z,24.20
2019-06-15T07:25:24.505Z,24.30
2019-06-15T07:28:07.107Z,24.30
2019-06-15T07:30:24.959Z,24.30
2019-06-15T07:32:54.343Z,24.40
2019-06-15T07:35:23.836Z,24.50
2019-06-15T07:37:53.237Z,24.50
2019-06-15T07:40:22.641Z,24.60
2019-06-15T07:42:52.432Z,24.60
2019-06-15T07:45:21.858Z,24.60
2019-06-15T07:47:51.314Z,24.60
2019-06-15T07:50:20.676Z,24.60
2019-06-15T07:52:50.103Z,24.60
2019-06-15T07:55:19.779Z,24.60
2019-06-15T07:57:49.180Z,24.60
2019-06-15T08:00:18.759Z,24.60
2019-06-15T08:02:48.168Z,24.70
2019-06-15T08:05:17.566Z,24.70
2019-06-15T08:07:47.071Z,24.80
2019-06-15T08:10:16.456Z,24.80
2019-06-15T08:12:45.909Z,24.80
2019-06-15T08:15:15.429Z,24.80
2019-06-15T08:17:45.795Z,24.80
2019-06-15T08:20:15.737Z,24.80
2019-06-15T08:22:45.115Z,24.90
2019-06-15T08:25:14.620Z,25.00
2019-06-15T08:27:44.017Z,25.00
2019-06-15T08:30:15.398Z,24.90
2019-06-15T08:32:44.785Z,24.90
2019-06-15T08:35:14.208Z,24.90
2019-06-15T08:37:43.660Z,24.80
2019-06-15T08:40:13.171Z,25.00
2019-06-15T08:42:42.576Z,25.10
2019-06-15T08:45:12.171Z,25.20
2019-06-15T08:47:41.649Z,25.20
2019-06-15T08:50:12.323Z,25.30
2019-06-15T08:52:41.844Z,25.30
2019-06-15T08:55:11.359Z,25.30
2019-06-15T08:57:40.805Z,25.30
2019-06-15T09:00:10.521Z,25.30
2019-06-15T09:02:39.896Z,25.40
2019-06-15T09:05:10.416Z,25.40
2019-06-15T09:07:39.897Z,25.40
2019-06-15T09:10:09.659Z,25.40
2019-06-15T09:12:39.108Z,25.40
2019-06-15T09:15:09.273Z,25.40
2019-06-15T09:17:38.749Z,25.50
2019-06-15T09:20:09.370Z,25.50
2019-06-15T09:22:38.775Z,25.50
2019-06-15T09:25:08.534Z,25.50
2019-06-15T09:27:37.932Z,25.50
2019-06-15T09:30:07.584Z,25.60
2019-06-15T09:32:37.016Z,25.70
2019-06-15T09:35:06.893Z,25.70
2019-06-15T09:37:36.369Z,25.80
2019-06-15T09:40:06.418Z,25.90
2019-06-15T09:42:35.872Z,25.90
2019-06-15T09:45:05.580Z,25.90
2019-06-15T09:47:35.004Z,26.00
2019-06-15T09:50:04.620Z,26.10
2019-06-15T09:52:34.048Z,26.20
2019-06-15T09:55:03.429Z,26.20
2019-06-15T09:57:32.824Z,26.30
2019-06-15T10:00:02.616Z,26.30
2019-06-15T10:02:32.328Z,26.30
2019-06-15T10:05:01.746Z,26.40
2019-06-15T10:07:31.112Z,26.50
2019-06-15T10:10:00.517Z,26.50
2019-06-15T10:12:29.952Z,26.40
2019-06-15T10:15:00.247Z,26.40
2019-06-15T10:17:29.688Z,26.30
2019-06-15T10:19:59.107Z,26.40
2019-06-15T10:22:28.565Z,26.40
2019-06-15T10:24:57.961Z,26.50
2019-06-15T10:27:27.399Z,26.60
2019-06-15T10:29:56.779Z,26.70
2019-06-15T10:32:26.196Z,26.70
2019-06-15T10:34:55.641Z,26.70
2019-06-15T10:37:25.063Z,26.70
2019-06-15T10:39:54.465Z,26.90
2019-06-15T10:42:23.872Z,27.00
2019-06-15T10:44:53.251Z,27.00
2019-06-15T10:47:22.733Z,27.00
2019-06-15T10:49:52.152Z,27.00
2019-06-15T10:52:21.535Z,27.00
2019-06-15T10:54:50.948Z,26.90
2019-06-15T10:57:20.422Z,26.90
2019-06-15T10:59:57.401Z,26.90
2019-06-15T11:02:20.912Z,27.00
2019-06-15T11:04:50.380Z,27.00
2019-06-15T11:07:19.763Z,26.90
2019-06-15T11:09:49.215Z,26.90
2019-06-15T11:12:18.618Z,27.00
2019-06-15T11:14:48.043Z,27.10
2019-06-15T11:17:17.449Z,27.20
2019-06-15T11:19:46.868Z,27.30
2019-06-15T11:22:16.314Z,27.30
2019-06-15T11:24:45.683Z,27.40
2019-06-15T11:27:15.202Z,27.40
2019-06-15T11:29:44.582Z,27.40
2019-06-15T11:32:14.007Z,27.30
2019-06-15T11:34:43.441Z,27.30
2019-06-15T11:37:12.838Z,27.20
2019-06-15T11:39:42.269Z,27.20
2019-06-15T11:42:11.675Z,27.20
2019-06-15T11:44:41.111Z,27.30
2019-06-15T11:47:10.506Z,27.40
2019-06-15T11:49:39.899Z,27.50
2019-06-15T11:52:09.305Z,27.60
2019-06-15T11:54:38.731Z,27.70
2019-06-15T11:57:08.144Z,27.70
2019-06-15T11:59:37.594Z,27.70
2019-06-15T12:02:07.057Z,27.60
2019-06-15T12:04:36.441Z,27.50
2019-06-15T12:07:05.963Z,27.60
2019-06-15T12:09:35.376Z,27.80
2019-06-15T12:12:04.905Z,27.90
2019-06-15T12:14:34.389Z,27.90
2019-06-15T12:17:03.831Z,27.80
2019-06-15T12:19:33.270Z,27.70
2019-06-15T12:22:02.689Z,27.60
2019-06-15T12:24:32.093Z,27.40
2019-06-15T12:27:01.516Z,27.30
2019-06-15T12:29:30.937Z,27.30
2019-06-15T12:32:00.372Z,27.20
2019-06-15T12:34:29.822Z,27.20
2019-06-15T12:36:59.233Z,27.30
2019-06-15T12:39:28.652Z,27.30
2019-06-15T12:41:58.056Z,27.40
2019-06-15T12:44:27.448Z,27.50
2019-06-15T12:46:56.917Z,27.50
2019-06-15T12:49:26.288Z,27.60
2019-06-15T12:51:55.699Z,27.50
2019-06-15T12:54:25.131Z,27.50
2019-06-15T12:56:54.558Z,27.50
2019-06-15T12:59:24.020Z,27.40
2019-06-15T13:01:53.413Z,27.50
2019-06-15T13:04:22.856Z,27.60
2019-06-15T13:06:52.257Z,27.70
2019-06-15T13:09:21.647Z,27.70
2019-06-15T13:11:51.128Z,27.70
2019-06-15T13:14:20.525Z,27.80
2019-06-15T13:16:49.973Z,27.80
2019-06-15T13:19:19.421Z,27.70
2019-06-15T13:21:48.810Z,27.50
2019-06-15T13:24:18.345Z,27.40
2019-06-15T13:26:47.756Z,27.40
2019-06-15T13:29:17.203Z,27.40
2019-06-15T13:31:47.032Z,27.50
2019-06-15T13:34:16.482Z,27.50
2019-06-15T13:36:45.896Z,27.50
2019-06-15T13:39:15.276Z,27.40
2019-06-15T13:41:44.733Z,27.50
2019-06-15T13:44:14.143Z,27.50
2019-06-15T13:46:43.512Z,27.50
2019-06-15T13:49:12.875Z,27.60
2019-06-15T13:51:42.248Z,27.70
2019-06-15T13:54:11.695Z,27.90
2019-06-15T13:56:41.067Z,27.80
2019-06-15T13:59:10.496Z,27.60
2019-06-15T14:01:39.875Z,27.30
2019-06-15T14:04:09.292Z,27.10
2019-06-15T14:06:38.707Z,27.00
2019-06-15T14:09:08.390Z,27.10
2019-06-15T14:11:37.768Z,27.10
2019-06-15T14:14:07.204Z,27.10
2019-06-15T14:16:36.659Z,27.00
2019-06-15T14:19:06.075Z,27.00
2019-06-15T14:21:35.536Z,27.00
2019-06-15T14:24:04.901Z,27.00
2019-06-15T14:26:34.304Z,27.00
2019-06-15T14:29:03.689Z,27.00
2019-06-15T14:31:33.109Z,26.90
2019-06-15T14:34:02.479Z,26.70
2019-06-15T14:36:32.008Z,26.60
2019-06-15T14:39:01.441Z,26.50
2019-06-15T14:41:30.909Z,26.30
2019-06-15T14:44:00.309Z,26.20
2019-06-15T14:46:29.739Z,26.10
2019-06-15T14:48:59.103Z,25.90
2019-06-15T14:51:28.513Z,25.80
2019-06-15T14:53:59.125Z,25.70
2019-06-15T14:56:28.712Z,25.70
2019-06-15T14:58:58.148Z,25.70
2019-06-15T15:01:27.834Z,25.70
2019-06-15T15:03:57.353Z,25.60
2019-06-15T15:06:26.789Z,25.50
2019-06-15T15:08:56.366Z,25.50
2019-06-15T15:11:26.459Z,25.40
2019-06-15T15:13:56.259Z,25.40
2019-06-15T15:16:25.723Z,25.40
2019-06-15T15:18:56.743Z,25.30
2019-06-15T15:21:27.993Z,25.40
2019-06-15T15:23:57.818Z,25.30
2019-06-15T15:26:27.332Z,25.30
2019-06-15T15:28:56.784Z,25.30
2019-06-15T15:31:27.221Z,25.20
2019-06-15T15:33:56.755Z,25.10
2019-06-15T15:36:26.412Z,25.00
2019-06-15T15:38:56.179Z,24.90
2019-06-15T15:41:26.619Z,24.80
2019-06-15T15:43:56.177Z,24.70
2019-06-15T15:46:25.604Z,24.70
2019-06-15T15:48:56.891Z,24.60
2019-06-15T15:51:26.232Z,24.50
2019-06-15T15:53:56.710Z,24.40
2019-06-15T15:56:27.241Z,24.40
2019-06-15T15:58:56.795Z,24.30
2019-06-15T16:01:26.477Z,24.20
2019-06-15T16:03:56.249Z,24.20
2019-06-15T16:06:26.179Z,24.20
2019-06-15T16:08:56.957Z,24.30
2019-06-15T16:11:26.764Z,24.50
2019-06-15T16:13:56.508Z,24.80
2019-06-15T16:16:26.716Z,25.00
2019-06-15T16:18:56.311Z,25.20
2019-06-15T16:21:26.028Z,25.20
2019-06-15T16:23:58.188Z,25.30
2019-06-15T16:26:27.207Z,25.30
2019-06-15T16:28:56.720Z,25.30
2019-06-15T16:31:29.129Z,25.30
2019-06-15T16:33:57.178Z,25.20
2019-06-15T16:36:26.566Z,25.20
2019-06-15T16:38:55.952Z,25.10
2019-06-15T16:41:25.914Z,25.00
2019-06-15T16:43:56.304Z,25.00
2019-06-15T16:46:26.346Z,25.00
2019-06-15T16:48:56.005Z,25.10
2019-06-15T16:51:26.961Z,25.10
2019-06-15T16:53:57.084Z,25.20
2019-06-15T16:56:26.877Z,25.20
2019-06-15T16:58:56.441Z,25.10
2019-06-15T17:01:27.506Z,25.10
2019-06-15T17:03:57.137Z,25.20
2019-06-15T17:06:26.969Z,25.30
2019-06-15T17:08:56.718Z,25.50
2019-06-15T17:11:26.460Z,25.60
2019-06-15T17:13:56.375Z,25.70
2019-06-15T17:16:26.129Z,25.80
2019-06-15T17:18:56.202Z,25.80
2019-06-15T17:21:26.144Z,25.70
2019-06-15T17:23:57.269Z,25.60
2019-06-15T17:26:26.815Z,25.50
2019-06-15T17:28:56.683Z,25.40
2019-06-15T17:31:27.155Z,25.20
2019-06-15T17:33:56.620Z,25.00
2019-06-15T17:36:27.606Z,25.00
2019-06-15T17:38:57.182Z,24.90
2019-06-15T17:41:26.707Z,24.90
2019-06-15T17:43:56.587Z,24.90
2019-06-15T17:46:29.589Z,24.70
2019-06-15T17:48:57.159Z,24.70
2019-06-15T17:51:27.058Z,24.60
2019-06-15T17:53:56.498Z,24.50
2019-06-15T17:56:26.805Z,24.40
2019-06-15T17:58:56.455Z,24.30
2019-06-15T18:01:26.594Z,24.20
2019-06-15T18:03:58.187Z,24.10
2019-06-15T18:06:27.226Z,24.00
2019-06-15T18:08:56.635Z,23.90
2019-06-15T18:11:26.357Z,23.90
2019-06-15T18:13:56.627Z,23.80
2019-06-15T18:16:29.592Z,23.80
2019-06-15T18:18:57.221Z,23.70
2019-06-15T18:21:26.989Z,23.60
2019-06-15T18:23:57.316Z,23.50
2019-06-15T18:26:26.913Z,23.50
2019-06-15T18:28:56.311Z,23.50
2019-06-15T18:31:26.932Z,23.40
2019-06-15T18:34:06.509Z,23.40
2019-06-15T18:36:27.620Z,23.30
2019-06-15T18:38:57.599Z,23.10
2019-06-15T18:41:27.031Z,23.00
2019-06-15T18:43:56.600Z,22.80
2019-06-15T18:46:27.258Z,22.70
2019-06-15T18:48:57.052Z,22.60
2019-06-15T18:51:27.019Z,22.60
2019-06-15T18:53:56.596Z,22.50
2019-06-15T18:56:27.101Z,22.50
2019-06-15T18:58:56.603Z,22.40
2019-06-15T19:01:27.113Z,22.40
2019-06-15T19:03:56.589Z,22.30
2019-06-15T19:06:26.515Z,22.30
2019-06-15T19:08:57.441Z,22.20
2019-06-15T19:11:27.441Z,22.10
2019-06-15T19:13:56.870Z,22.20
2019-06-15T19:16:26.308Z,22.10
2019-06-15T19:18:56.654Z,22.00
2019-06-15T19:21:26.210Z,22.00
2019-06-15T19:23:56.485Z,21.90
2019-06-15T19:26:26.864Z,21.80
2019-06-15T19:28:56.301Z,21.70
2019-06-15T19:31:27.754Z,21.60
2019-06-15T19:33:56.942Z,21.60
2019-06-15T19:36:26.354Z,21.60
2019-06-15T19:38:57.146Z,21.50
2019-06-15T19:41:26.731Z,21.50
2019-06-15T19:43:57.099Z,21.50
2019-06-15T19:46:26.555Z,21.50
2019-06-15T19:48:56.112Z,21.40
2019-06-15T19:51:26.404Z,21.40
2019-06-15T19:53:56.697Z,21.30
2019-06-15T19:56:26.162Z,21.30
2019-06-15T19:58:56.488Z,21.30
2019-06-15T20:01:26.329Z,21.20
2019-06-15T20:03:57.454Z,21.20
2019-06-15T20:06:26.960Z,21.20
2019-06-15T20:08:56.414Z,21.10
2019-06-15T20:11:25.749Z,21.10
2019-06-15T20:13:56.201Z,21.20
2019-06-15T20:16:25.740Z,21.20
2019-06-15T20:18:56.291Z,21.20
2019-06-15T20:21:25.844Z,21.10
2019-06-15T20:23:56.579Z,21.10
2019-06-15T20:26:26.846Z,21.10
2019-06-15T20:28:56.493Z,21.00
2019-06-15T20:31:25.861Z,21.00
2019-06-15T20:33:57.001Z,20.90
2019-06-15T20:36:26.974Z,20.80
2019-06-15T20:38:56.475Z,20.70
2019-06-15T20:41:26.949Z,20.60
2019-06-15T20:43:56.659Z,20.60
2019-06-15T20:46:26.492Z,20.40
2019-06-15T20:48:56.517Z,20.30
2019-06-15T20:51:25.931Z,20.20
2019-06-15T20:53:56.715Z,20.00
2019-06-15T20:56:26.682Z,20.00
2019-06-15T20:58:57.203Z,19.90
2019-06-15T21:01:26.667Z,19.90
2019-06-15T21:03:56.566Z,19.80
2019-06-15T21:06:26.215Z,19.60
2019-06-15T21:08:55.603Z,19.50
2019-06-15T21:11:26.533Z,19.40
2019-06-15T21:13:56.076Z,19.30
2019-06-15T21:16:26.196Z,19.30
2019-06-15T21:18:57.086Z,19.30
2019-06-15T21:21:27.680Z,19.20
2019-06-15T21:23:57.179Z,19.10
2019-06-15T21:26:27.267Z,18.90
2019-06-15T21:28:56.718Z,18.90
2019-06-15T21:31:26.363Z,18.80
2019-06-15T21:33:56.202Z,18.80
2019-06-15T21:36:26.171Z,18.70
2019-06-15T21:38:56.352Z,18.70
2019-06-15T21:41:26.301Z,18.60
2019-06-15T21:43:56.523Z,18.60
2019-06-15T21:46:26.704Z,18.60
2019-06-15T21:48:56.434Z,18.60
2019-06-15T21:51:27.055Z,18.60
2019-06-15T21:53:56.573Z,18.50
2019-06-15T21:56:29.008Z,18.40
2019-06-15T21:58:57.000Z,18.30
2019-06-15T22:01:37.477Z,18.30
2019-06-15T22:04:07.193Z,18.20
2019-06-15T22:06:37.225Z,18.10
2019-06-15T22:09:12.533Z,18.10
2019-06-15T22:11:46.909Z,18.00
2019-06-15T22:14:17.183Z,18.00
2019-06-15T22:16:46.708Z,17.80
2019-06-15T22:19:16.959Z,17.50
2019-06-15T22:21:47.760Z,17.20
2019-06-15T22:24:17.299Z,16.90
2019-06-15T22:26:46.867Z,16.70
2019-06-15T22:29:16.923Z,16.60
2019-06-15T22:31:46.756Z,16.50
2019-06-15T22:34:16.347Z,16.40
2019-06-15T22:36:47.772Z,16.40
2019-06-15T22:39:17.165Z,16.30
2019-06-15T22:41:47.083Z,16.30
2019-06-15T22:44:17.239Z,16.40
2019-06-15T22:46:46.664Z,16.40
2019-06-15T22:49:16.207Z,16.40
2019-06-15T22:51:46.000Z,16.40
2019-06-15T22:54:16.671Z,16.50
2019-06-15T22:56:46.563Z,16.50
2019-06-15T22:59:16.897Z,16.50
2019-06-15T23:01:46.424Z,16.60
2019-06-15T23:04:17.265Z,16.60
2019-06-15T23:06:48.225Z,16.60
2019-06-15T23:09:17.790Z,16.60
2019-06-15T23:11:47.176Z,16.60
2019-06-15T23:14:17.225Z,16.60
2019-06-15T23:16:47.483Z,16.60
2019-06-15T23:19:17.545Z,16.50
2019-06-15T23:21:47.010Z,16.50
2019-06-15T23:24:16.705Z,16.50
2019-06-15T23:26:46.292Z,16.40
2019-06-15T23:29:16.455Z,16.40
2019-06-15T23:31:46.297Z,16.30
2019-06-15T23:34:16.294Z,16.30
2019-06-15T23:36:56.335Z,16.20
2019-06-15T23:39:18.460Z,16.20
2019-06-15T23:41:47.872Z,16.10
2019-06-15T23:44:17.325Z,16.10
2019-06-15T23:46:47.028Z,16.00
2019-06-15T23:49:16.545Z,15.90
2019-06-15T23:51:46.675Z,15.80
2019-06-15T23:54:16.282Z,15.80
2019-06-15T23:56:46.196Z,15.70
2019-06-15T23:59:18.054Z,15.70
